Time;durP1;ratioP1;P1;durP2;ratioP2;P2;SDS_P1;SDS_P2;PMS_P1;PMS_P2;Temp;Humidity;BMP_temperature;BMP_pressure;BME280_temperature;BME280_humidity;BME280_pressure;Samples;Min_cycle;Max_cycle;Signal;HPM_P1;HPM_P2
2023/03/11 00:00:27;;;;;;;;;;;;;;;27.01;29.00;99089.16;5077753;28;1039;-23
2023/03/11 00:02:53;;;;;;;;;;;;;;;26.89;29.33;99087.19;5078378;28;1140;-24
2023/03/11 00:05:23;;;;;;;;;;;;;;;27.06;28.96;99099.34;5067748;28;1902;-24
2023/03/11 00:07:48;;;;;;;;;;;;;;;27.12;28.91;99096.56;5064855;28;1157;-24
2023/03/11 00:10:14;;;;;;;;;;;;;;;27.41;28.49;99106.03;5077712;28;1089;-24
2023/03/11 00:12:40;;;;;;;;;;;;;;;26.87;29.49;99099.25;5077803;28;1111;-23
2023/03/11 00:15:06;;;;;;;;;;;;;;;26.96;29.23;99099.81;5077880;28;1111;-25
2023/03/11 00:17:31;;;;;;;;;;;;;;;27.42;28.46;99097.72;5079530;28;1145;-24
2023/03/11 00:19:57;;;;;;;;;;;;;;;27.21;28.91;99094.38;5084334;28;1094;-23
2023/03/11 00:22:22;;;;;;;;;;;;;;;26.70;29.61;99089.03;5064031;28;1106;-24
2023/03/11 00:24:48;;;;;;;;;;;;;;;27.13;29.47;99084.72;5077662;28;1142;-24
2023/03/11 00:27:13;;;;;;;;;;;;;;;27.33;28.24;99089.06;5046819;28;1992;-24
2023/03/11 00:29:39;;;;;;;;;;;;;;;27.07;28.91;99087.47;5061655;28;1202;-24
2023/03/11 00:32:05;;;;;;;;;;;;;;;26.63;29.53;99072.06;5063828;28;1153;-23
2023/03/11 00:34:31;;;;;;;;;;;;;;;27.30;27.99;99076.03;5077492;28;1005;-25
2023/03/11 00:36:57;;;;;;;;;;;;;;;27.42;28.29;99073.41;5064553;28;1060;-24
2023/03/11 00:39:22;;;;;;;;;;;;;;;26.69;29.69;99065.81;5059082;28;1065;-22
2023/03/11 00:41:48;;;;;;;;;;;;;;;27.12;29.26;99069.59;5066496;28;980;-24
2023/03/11 00:44:14;;;;;;;;;;;;;;;27.39;27.93;99066.56;5084038;28;1183;-24
2023/03/11 00:46:39;;;;;;;;;;;;;;;26.90;29.18;99064.59;5077692;28;1905;-26
2023/03/11 00:49:05;;;;;;;;;;;;;;;26.53;30.29;99056.41;5077245;28;1162;-23
2023/03/11 00:51:30;;;;;;;;;;;;;;;27.10;29.09;99057.34;5073810;28;1341;-24
2023/03/11 00:53:56;;;;;;;;;;;;;;;27.36;27.76;99050.00;5066943;28;1024;-22
2023/03/11 00:56:21;;;;;;;;;;;;;;;26.87;28.90;99048.00;5058772;28;1130;-23
2023/03/11 00:58:47;;;;;;;;;;;;;;;26.63;29.34;99045.09;5059312;28;1245;-23
2023/03/11 01:01:14;;;;;;;;;;;;;;;27.23;27.96;99040.16;5059015;28;1176;-23
2023/03/11 01:03:39;;;;;;;;;;;;;;;27.32;27.88;99032.59;5058936;28;1225;-24
2023/03/11 01:06:05;;;;;;;;;;;;;;;26.69;29.37;99021.84;5080596;28;1986;-23
2023/03/11 01:08:31;;;;;;;;;;;;;;;26.90;29.07;99021.41;5066767;28;1266;-24
2023/03/11 01:10:56;;;;;;;;;;;;;;;27.29;27.71;99012.28;5076847;28;1231;-23
2023/03/11 01:13:22;;;;;;;;;;;;;;;27.13;28.46;99016.41;5076206;28;1030;-25
2023/03/11 01:15:48;;;;;;;;;;;;;;;26.63;29.09;99005.50;5076611;28;1082;-23
2023/03/11 01:18:14;;;;;;;;;;;;;;;27.06;28.88;99002.19;5080744;28;1078;-24
2023/03/11 01:20:40;;;;;;;;;;;;;;;27.27;27.56;98992.78;5064419;28;1233;-23
2023/03/11 01:23:05;;;;;;;;;;;;;;;27.10;28.29;98995.28;5076179;28;1158;-24
2023/03/11 01:25:31;;;;;;;;;;;;;;;26.62;28.81;98993.06;5076302;28;1910;-23
2023/03/11 01:27:57;;;;;;;;;;;;;;;27.20;28.18;98995.56;5076656;28;1058;-23
2023/03/11 01:30:23;;;;;;;;;;;;;;;27.36;27.65;98990.63;5081049;28;1098;-25
2023/03/11 01:32:49;;;;;;;;;;;;;;;27.05;28.31;98987.84;5066009;28;1177;-25
2023/03/11 01:35:15;;;;;;;;;;;;;;;26.73;28.74;98986.09;5057893;28;1086;-23
2023/03/11 01:37:40;;;;;;;;;;;;;;;27.21;28.24;98991.81;5076455;28;1042;-24
2023/03/11 01:40:07;;;;;;;;;;;;;;;27.45;27.46;98989.25;5076131;28;1030;-23
2023/03/11 01:42:32;;;;;;;;;;;;;;;27.12;28.42;98983.22;5081539;28;1220;-23
2023/03/11 01:44:58;;;;;;;;;;;;;;;26.73;28.83;98985.25;5063879;28;2272;-23
2023/03/11 01:47:34;;;;;;;;;;;;;;;27.23;28.28;98983.47;5076036;28;1046;-22
2023/03/11 01:50:00;;;;;;;;;;;;;;;27.39;27.29;98985.56;5058386;28;1119;-23
2023/03/11 01:52:26;;;;;;;;;;;;;;;26.84;28.76;98979.13;5058358;28;1356;-22
2023/03/11 01:54:52;;;;;;;;;;;;;;;26.62;28.84;98974.19;5051482;28;1142;-24
2023/03/11 01:57:17;;;;;;;;;;;;;;;27.31;27.61;98966.97;5051710;28;1209;-24
2023/03/11 01:59:48;;;;;;;;;;;;;;;27.30;27.87;98970.75;5058360;28;1114;-24
2023/03/11 02:02:16;;;;;;;;;;;;;;;26.88;28.54;98976.81;5058073;28;1136;-23
2023/03/11 02:04:42;;;;;;;;;;;;;;;26.80;28.57;98975.22;5041470;28;1136;-24
2023/03/11 02:07:08;;;;;;;;;;;;;;;27.32;28.11;98965.09;5065782;28;1910;-22
2023/03/11 02:09:34;;;;;;;;;;;;;;;27.35;28.04;98960.09;5057529;28;1439;-23
2023/03/11 02:12:00;;;;;;;;;;;;;;;26.65;29.25;98959.41;5076130;28;1181;-23
2023/03/11 02:14:25;;;;;;;;;;;;;;;27.20;28.32;98949.69;5057936;28;1254;-23
2023/03/11 02:16:52;;;;;;;;;;;;;;;27.38;27.80;98956.91;5057760;28;1252;-25
2023/03/11 02:19:37;;;;;;;;;;;;;;;26.88;28.95;98958.75;5077812;28;966;-23
2023/03/11 02:22:03;;;;;;;;;;;;;;;26.55;29.55;98948.31;5057746;28;1143;-24
2023/03/11 02:24:38;;;;;;;;;;;;;;;27.06;29.29;98949.00;5057708;28;1194;-23
2023/03/11 02:27:07;;;;;;;;;;;;;;;27.14;29.24;98943.31;5075674;28;1973;-27
2023/03/11 02:29:33;;;;;;;;;;;;;;;26.36;30.40;98938.31;5041229;28;1179;-23
2023/03/11 02:31:59;;;;;;;;;;;;;;;27.08;29.96;98936.13;5066218;28;1181;-24
2023/03/11 02:34:31;;;;;;;;;;;;;;;27.29;29.32;98941.28;5050615;28;1330;-23
2023/03/11 02:36:58;;;;;;;;;;;;;;;26.92;29.72;98929.44;5038735;28;1211;-23
2023/03/11 02:39:30;;;;;;;;;;;;;;;26.58;30.90;98935.22;5038220;28;1242;-23
2023/03/11 02:41:57;;;;;;;;;;;;;;;27.34;29.31;98922.50;5053975;28;1188;-23
2023/03/11 02:44:22;;;;;;;;;;;;;;;27.41;29.40;98911.63;5064885;28;1124;-24
2023/03/11 02:46:48;;;;;;;;;;;;;;;26.63;30.95;98916.50;5075128;28;1976;-23
2023/03/11 02:49:14;;;;;;;;;;;;;;;27.10;30.17;98915.13;5057905;28;1107;-23
2023/03/11 02:51:39;;;;;;;;;;;;;;;27.31;29.25;98910.28;5055535;28;1158;-24
2023/03/11 02:54:05;;;;;;;;;;;;;;;27.05;30.14;98901.50;5046911;28;1151;-23
2023/03/11 02:56:32;;;;;;;;;;;;;;;26.53;30.92;98895.44;5063898;28;1142;-23
2023/03/11 02:58:58;;;;;;;;;;;;;;;27.05;30.24;98889.88;5046713;28;1443;-23
2023/03/11 03:01:24;;;;;;;;;;;;;;;27.21;29.72;98893.84;5047082;28;1227;-24
2023/03/11 03:03:49;;;;;;;;;;;;;;;26.68;30.86;98886.16;5057768;28;1187;-23
2023/03/11 03:06:15;;;;;;;;;;;;;;;26.89;30.62;98894.84;5057454;28;1902;-24
2023/03/11 03:08:41;;;;;;;;;;;;;;;27.16;30.18;98889.09;5062559;28;1133;-22
2023/03/11 03:11:06;;;;;;;;;;;;;;;26.93;30.66;98889.78;5075560;28;1154;-22
2023/03/11 03:13:32;;;;;;;;;;;;;;;26.49;31.37;98883.44;5075507;28;1078;-23
2023/03/11 03:15:59;;;;;;;;;;;;;;;26.95;30.63;98883.13;5057194;28;1324;-22
2023/03/11 03:18:25;;;;;;;;;;;;;;;27.17;29.99;98879.97;5056916;28;1206;-23
2023/03/11 03:20:51;;;;;;;;;;;;;;;27.09;30.42;98867.59;5088368;28;1229;-23
2023/03/11 03:23:16;;;;;;;;;;;;;;;26.46;31.33;98875.00;5078424;28;1237;-23
2023/03/11 03:25:43;;;;;;;;;;;;;;;27.08;30.38;98867.81;5052467;28;1967;-22
2023/03/11 03:28:10;;;;;;;;;;;;;;;27.25;29.23;98858.06;5054330;28;1259;-25
2023/03/11 03:30:37;;;;;;;;;;;;;;;27.18;30.00;98867.28;5060894;28;1402;-23
2023/03/11 03:33:03;;;;;;;;;;;;;;;26.70;30.57;98853.56;5065198;28;1102;-23
2023/03/11 03:35:29;;;;;;;;;;;;;;;27.18;29.77;98865.41;5060869;28;1272;-23
2023/03/11 03:38:15;;;;;;;;;;;;;;;27.19;29.34;98863.53;5058106;28;1483;-23
2023/03/11 03:40:44;;;;;;;;;;;;;;;26.55;30.69;98857.47;5061076;28;1340;-23
2023/03/11 03:43:10;;;;;;;;;;;;;;;27.13;29.70;98860.69;5060328;28;1191;-23
2023/03/11 03:45:37;;;;;;;;;;;;;;;27.35;28.71;98862.06;5060566;28;1897;-23
2023/03/11 03:48:03;;;;;;;;;;;;;;;26.84;30.00;98855.03;5060211;28;1279;-24
2023/03/11 03:50:32;;;;;;;;;;;;;;;26.98;29.89;98855.69;5044450;28;1407;-23
2023/03/11 03:52:58;;;;;;;;;;;;;;;27.21;28.63;98845.25;5054663;28;1163;-25
2023/03/11 03:55:24;;;;;;;;;;;;;;;27.22;28.93;98861.22;5064410;28;1259;-23
2023/03/11 03:57:51;;;;;;;;;;;;;;;26.55;30.46;98854.78;5048913;28;1317;-24
2023/03/11 04:00:18;;;;;;;;;;;;;;;27.04;29.57;98847.75;5058647;28;1142;-24
2023/03/11 04:02:50;;;;;;;;;;;;;;;27.30;29.12;98851.13;5049886;28;1334;-22
2023/03/11 04:05:26;;;;;;;;;;;;;;;26.64;30.91;98842.63;5059888;28;1902;-24
2023/03/11 04:07:53;;;;;;;;;;;;;;;26.41;31.22;98833.34;5066634;28;1952;-24
2023/03/11 04:10:20;;;;;;;;;;;;;;;25.66;32.66;98841.28;5062340;28;1098;-25
2023/03/11 04:12:46;;;;;;;;;;;;;;;25.24;33.13;98833.69;5077970;28;1229;-24
2023/03/11 04:15:11;;;;;;;;;;;;;;;26.02;32.42;98824.63;5077690;28;1079;-22
2023/03/11 04:17:38;;;;;;;;;;;;;;;26.56;29.91;98820.56;5059607;28;1116;-22
2023/03/11 04:20:06;;;;;;;;;;;;;;;26.49;29.88;98824.13;5062858;28;1237;-23
2023/03/11 04:22:32;;;;;;;;;;;;;;;26.46;29.98;98808.41;5059641;28;1150;-23
2023/03/11 04:24:58;;;;;;;;;;;;;;;26.71;30.03;98804.78;5059851;28;1091;-25
2023/03/11 04:27:24;;;;;;;;;;;;;;;26.74;30.03;98800.81;5059769;28;1914;-23
2023/03/11 04:29:49;;;;;;;;;;;;;;;26.67;29.93;98794.69;5059228;28;1218;-24
2023/03/11 04:32:15;;;;;;;;;;;;;;;27.09;29.62;98797.44;5067821;28;1272;-24
2023/03/11 04:34:41;;;;;;;;;;;;;;;26.95;29.41;98795.94;5061171;28;1181;-21
2023/03/11 04:37:08;;;;;;;;;;;;;;;26.96;29.08;98795.72;5059536;28;1205;-23
2023/03/11 04:39:35;;;;;;;;;;;;;;;27.07;29.66;98796.03;5059040;28;1200;-22
2023/03/11 04:42:01;;;;;;;;;;;;;;;26.73;29.44;98791.06;5056704;28;1447;-23
2023/03/11 04:44:27;;;;;;;;;;;;;;;26.73;29.68;98774.88;5057181;28;1188;-23
2023/03/11 04:46:52;;;;;;;;;;;;;;;26.55;29.98;98790.06;5074057;28;1918;-23
2023/03/11 04:49:18;;;;;;;;;;;;;;;27.01;29.36;98795.88;5062883;28;1154;-24
2023/03/11 04:51:44;;;;;;;;;;;;;;;26.99;29.25;98797.16;5049957;28;1258;-23
2023/03/11 04:54:11;;;;;;;;;;;;;;;27.10;28.98;98799.09;5076948;28;1269;-23
2023/03/11 04:56:37;;;;;;;;;;;;;;;27.14;28.93;98805.66;5057887;28;1147;-23
2023/03/11 04:59:04;;;;;;;;;;;;;;;27.09;28.61;98796.63;5058599;28;1198;-23
2023/03/11 05:01:32;;;;;;;;;;;;;;;26.82;29.47;98784.31;5084497;28;1043;-23
2023/03/11 05:04:01;;;;;;;;;;;;;;;26.84;29.23;98782.19;5076865;28;1862;-23
2023/03/11 05:06:27;;;;;;;;;;;;;;;27.10;28.33;98788.28;5067538;28;1975;-23
2023/03/11 05:08:52;;;;;;;;;;;;;;;26.96;28.67;98782.22;5060211;28;1133;-24
2023/03/11 05:11:18;;;;;;;;;;;;;;;26.44;29.81;98788.97;5076870;28;1034;-24
2023/03/11 05:13:45;;;;;;;;;;;;;;;27.05;28.91;98779.22;5060094;28;1417;-22
2023/03/11 05:16:12;;;;;;;;;;;;;;;27.24;28.55;98772.69;5070259;28;1158;-23
2023/03/11 05:18:37;;;;;;;;;;;;;;;26.76;28.95;98764.47;5060279;28;1250;-23
2023/03/11 05:21:04;;;;;;;;;;;;;;;27.00;28.76;98769.09;5077390;28;1324;-24
2023/03/11 05:23:32;;;;;;;;;;;;;;;27.34;28.06;98771.31;5063188;28;1206;-26
2023/03/11 05:25:58;;;;;;;;;;;;;;;27.13;28.55;98771.63;5067100;28;1910;-24
2023/03/11 05:28:23;;;;;;;;;;;;;;;26.62;29.19;98776.50;5065191;28;1154;-22
2023/03/11 05:30:51;;;;;;;;;;;;;;;26.99;28.54;98780.97;5078426;28;1169;-26
2023/03/11 05:33:17;;;;;;;;;;;;;;;27.27;28.37;98784.94;5083313;28;1147;-22
2023/03/11 05:35:44;;;;;;;;;;;;;;;26.71;28.95;98772.41;5078322;28;1130;-24
2023/03/11 05:38:09;;;;;;;;;;;;;;;26.67;29.35;98781.19;5078495;28;1287;-28
2023/03/11 05:40:36;;;;;;;;;;;;;;;27.20;28.23;98784.19;5078218;28;1221;-24
2023/03/11 05:43:02;;;;;;;;;;;;;;;27.37;27.92;98787.06;5074235;28;1129;-23
2023/03/11 05:45:30;;;;;;;;;;;;;;;27.29;27.86;98782.00;5057947;28;1979;-23
2023/03/11 05:47:58;;;;;;;;;;;;;;;27.35;27.92;98778.34;5089203;28;1062;-24
2023/03/11 05:50:24;;;;;;;;;;;;;;;27.29;27.49;98780.13;5085648;28;1046;-27
2023/03/11 05:52:50;;;;;;;;;;;;;;;27.30;27.53;98784.47;5077728;28;1274;-24
2023/03/11 05:55:16;;;;;;;;;;;;;;;27.22;28.00;98779.41;5068351;28;1217;-23
2023/03/11 05:57:44;;;;;;;;;;;;;;;27.34;27.70;98782.13;5074793;28;1150;-23
2023/03/11 06:00:11;;;;;;;;;;;;;;;27.26;27.71;98781.41;5078577;28;1220;-23
2023/03/11 06:02:39;;;;;;;;;;;;;;;27.30;27.83;98781.75;5086677;28;1133;-22
2023/03/11 06:05:06;;;;;;;;;;;;;;;27.17;28.08;98784.66;5049974;28;1978;-26
2023/03/11 06:07:32;;;;;;;;;;;;;;;27.41;27.35;98779.31;5058894;28;1203;-25
2023/03/11 06:09:58;;;;;;;;;;;;;;;27.37;27.59;98779.78;5067363;28;1460;-24
2023/03/11 06:12:24;;;;;;;;;;;;;;;27.27;27.59;98776.84;5065041;28;1179;-26
2023/03/11 06:15:10;;;;;;;;;;;;;;;27.14;27.92;98773.28;5066407;28;1180;-22
2023/03/11 06:17:36;;;;;;;;;;;;;;;27.31;27.70;98763.69;5049764;28;1084;-22
2023/03/11 06:20:04;;;;;;;;;;;;;;;27.36;27.82;98758.44;5064513;28;1115;-23
2023/03/11 06:22:30;;;;;;;;;;;;;;;27.11;28.23;98757.56;5042501;28;1341;-22
2023/03/11 06:24:56;;;;;;;;;;;;;;;27.33;28.02;98753.47;5056321;28;1139;-23
2023/03/11 06:27:23;;;;;;;;;;;;;;;27.29;27.62;98747.75;5060795;28;1910;-23
2023/03/11 06:29:51;;;;;;;;;;;;;;;26.95;28.56;98739.28;5043561;28;1281;-23
2023/03/11 06:32:16;;;;;;;;;;;;;;;26.63;28.70;98733.09;5050931;28;1128;-23
2023/03/11 06:34:43;;;;;;;;;;;;;;;27.13;28.10;98741.94;5056177;28;1166;-23
2023/03/11 06:37:09;;;;;;;;;;;;;;;27.37;27.77;98738.47;5053529;28;1226;-22
2023/03/11 06:39:34;;;;;;;;;;;;;;;27.07;28.31;98733.97;5068721;28;992;-23
2023/03/11 06:42:00;;;;;;;;;;;;;;;27.01;28.18;98746.47;5058819;28;1251;-23
2023/03/11 06:44:28;;;;;;;;;;;;;;;27.34;27.98;98745.13;5036919;28;1020;-23
2023/03/11 06:46:53;;;;;;;;;;;;;;;27.21;28.22;98734.59;5024381;28;1937;-24
2023/03/11 06:49:19;;;;;;;;;;;;;;;26.64;29.07;98725.84;5014841;28;1309;-22
2023/03/11 06:51:45;;;;;;;;;;;;;;;26.81;28.86;98734.09;5014238;28;1223;-22
2023/03/11 06:54:13;;;;;;;;;;;;;;;27.20;27.99;98732.91;5015444;28;1139;-24
2023/03/11 06:56:38;;;;;;;;;;;;;;;27.19;28.48;98726.72;5020861;28;981;-24
2023/03/11 06:59:06;;;;;;;;;;;;;;;26.62;29.40;98725.25;5022627;28;1273;-23
2023/03/11 07:01:33;;;;;;;;;;;;;;;27.26;28.29;98718.47;5026584;28;1597;-23
2023/03/11 07:04:01;;;;;;;;;;;;;;;27.18;28.54;98725.06;5026148;28;1131;-25
2023/03/11 07:06:27;;;;;;;;;;;;;;;27.02;28.58;98722.00;5028470;28;1921;-22
2023/03/11 07:09:00;;;;;;;;;;;;;;;28.17;27.11;98724.56;5041218;28;1352;-24
2023/03/11 07:11:27;;;;;;;;;;;;;;;28.63;26.15;98725.72;5032190;28;1176;-23
2023/03/11 07:13:59;;;;;;;;;;;;;;;28.75;25.86;98715.63;5054096;28;1245;-24
2023/03/11 07:16:28;;;;;;;;;;;;;;;28.64;26.13;98706.53;5041608;28;1171;-25
2023/03/11 07:19:02;;;;;;;;;;;;;;;28.60;26.10;98711.59;5017711;28;1238;-24
2023/03/11 07:21:27;;;;;;;;;;;;;;;28.69;26.02;98713.91;5030813;28;1199;-22
2023/03/11 07:23:53;;;;;;;;;;;;;;;29.49;25.12;98710.34;5031990;28;1134;-22
2023/03/11 07:26:19;;;;;;;;;;;;;;;29.72;24.48;98703.09;5043141;28;1993;-21
2023/03/11 07:28:45;;;;;;;;;;;;;;;29.50;24.83;98695.72;5058081;28;1122;-24
2023/03/11 07:31:11;;;;;;;;;;;;;;;29.62;24.83;98683.97;5047208;28;1428;-23
2023/03/11 07:33:37;;;;;;;;;;;;;;;29.76;24.62;98673.59;5035431;28;1135;-22
2023/03/11 07:36:12;;;;;;;;;;;;;;;29.76;24.47;98666.25;5046014;28;1126;-24
2023/03/11 07:38:38;;;;;;;;;;;;;;;29.82;24.42;98672.59;5032539;28;1166;-23
2023/03/11 07:41:04;;;;;;;;;;;;;;;29.87;24.59;98669.13;5058002;28;1077;-22
2023/03/11 07:43:30;;;;;;;;;;;;;;;29.66;24.64;98661.53;5036769;28;1501;-24
2023/03/11 07:46:03;;;;;;;;;;;;;;;29.96;24.32;98658.66;5098008;28;1961;-22
2023/03/11 07:48:28;;;;;;;;;;;;;;;29.90;23.99;98655.88;5084456;28;1015;-23
2023/03/11 07:51:03;;;;;;;;;;;;;;;29.72;24.19;98651.59;5094656;28;1119;-23
2023/03/11 07:53:29;;;;;;;;;;;;;;;29.65;24.48;98642.81;5057851;28;1266;-22
2023/03/11 07:55:55;;;;;;;;;;;;;;;29.57;24.82;98649.47;5076594;28;1140;-22
2023/03/11 07:58:21;;;;;;;;;;;;;;;29.94;24.16;98653.50;5071184;28;1234;-23
2023/03/11 08:00:46;;;;;;;;;;;;;;;29.75;24.38;98639.41;5077969;28;1035;-23
2023/03/11 08:03:12;;;;;;;;;;;;;;;29.87;24.82;98631.16;5078447;28;1169;-21
2023/03/11 08:05:37;;;;;;;;;;;;;;;30.27;23.69;98624.59;5097650;28;1910;-23
2023/03/11 08:08:03;;;;;;;;;;;;;;;29.85;24.75;98609.75;5082361;28;1038;-23
2023/03/11 08:10:29;;;;;;;;;;;;;;;29.62;24.98;98610.81;5097748;28;824;-22
2023/03/11 08:12:54;;;;;;;;;;;;;;;30.03;24.43;98615.91;5078358;28;1190;-23
2023/03/11 08:15:20;;;;;;;;;;;;;;;29.52;24.93;98611.47;5077371;28;1117;-23
2023/03/11 08:17:45;;;;;;;;;;;;;;;29.27;25.11;98604.66;5068115;28;1048;-24
2023/03/11 08:20:11;;;;;;;;;;;;;;;29.93;24.52;98616.59;5072057;28;1019;-22
2023/03/11 08:22:36;;;;;;;;;;;;;;;29.42;25.00;98604.06;5093443;28;1039;-24
2023/03/11 08:25:02;;;;;;;;;;;;;;;29.32;24.59;98612.84;5085241;28;1213;-23
2023/03/11 08:27:28;;;;;;;;;;;;;;;29.37;25.15;98610.22;5072877;28;1901;-25
2023/03/11 08:29:53;;;;;;;;;;;;;;;29.34;25.13;98598.00;5082939;28;1135;-23
2023/03/11 08:32:19;;;;;;;;;;;;;;;29.15;25.40;98599.34;5088354;28;1038;-23
2023/03/11 08:34:45;;;;;;;;;;;;;;;29.33;25.15;98596.38;5071246;28;866;-24
2023/03/11 08:37:10;;;;;;;;;;;;;;;29.49;24.85;98596.56;5058646;28;1205;-26
2023/03/11 08:39:36;;;;;;;;;;;;;;;29.08;25.35;98589.53;5080923;28;1015;-22
2023/03/11 08:42:02;;;;;;;;;;;;;;;29.04;25.73;98587.56;5096127;28;1101;-22
2023/03/11 08:44:27;;;;;;;;;;;;;;;29.56;24.48;98597.19;5080643;28;1172;-22
2023/03/11 08:46:53;;;;;;;;;;;;;;;29.36;24.94;98592.34;5083238;28;1909;-22
2023/03/11 08:49:19;;;;;;;;;;;;;;;29.28;25.14;98590.88;5082110;28;1158;-22
2023/03/11 08:51:44;;;;;;;;;;;;;;;29.69;24.60;98598.75;5097333;28;1010;-23
2023/03/11 08:54:10;;;;;;;;;;;;;;;29.61;24.71;98593.78;5066542;28;1556;-22
2023/03/11 08:56:35;;;;;;;;;;;;;;;29.51;24.85;98594.41;5062984;28;1273;-24
2023/03/11 08:59:01;;;;;;;;;;;;;;;29.57;24.96;98588.00;5079228;28;1107;-23
2023/03/11 09:01:28;;;;;;;;;;;;;;;29.74;24.44;98576.31;5091882;28;1121;-23
2023/03/11 09:03:54;;;;;;;;;;;;;;;29.67;24.83;98578.38;5075666;28;1198;-23
2023/03/11 09:06:19;;;;;;;;;;;;;;;29.58;25.07;98580.66;5082932;28;2001;-23
2023/03/11 09:08:45;;;;;;;;;;;;;;;29.77;24.61;98581.22;5087739;28;1201;-23
2023/03/11 09:11:12;;;;;;;;;;;;;;;29.72;24.78;98592.00;5095990;28;1069;-22
2023/03/11 09:13:39;;;;;;;;;;;;;;;29.49;25.23;98580.31;5090674;28;1146;-24
2023/03/11 09:16:06;;;;;;;;;;;;;;;29.71;24.75;98582.22;5096479;28;1090;-23
2023/03/11 09:18:32;;;;;;;;;;;;;;;29.09;24.67;98576.81;5093091;28;1146;-22
2023/03/11 09:20:59;;;;;;;;;;;;;;;29.16;25.23;98595.59;5094664;28;1125;-22
2023/03/11 09:23:24;;;;;;;;;;;;;;;29.19;25.08;98601.34;5068006;28;964;-22
2023/03/11 09:25:50;;;;;;;;;;;;;;;29.15;24.93;98608.31;5079901;28;1969;-24
2023/03/11 09:28:15;;;;;;;;;;;;;;;29.74;24.05;98616.13;5067654;28;1099;-23
2023/03/11 09:30:41;;;;;;;;;;;;;;;29.41;24.42;98615.97;5088527;28;1039;-23
2023/03/11 09:33:07;;;;;;;;;;;;;;;29.35;24.60;98631.31;5082758;28;1101;-23
2023/03/11 09:35:33;;;;;;;;;;;;;;;29.73;23.98;98633.47;5071283;28;1258;-23
2023/03/11 09:37:58;;;;;;;;;;;;;;;29.40;24.12;98636.81;5085283;28;1026;-23
2023/03/11 09:40:24;;;;;;;;;;;;;;;29.41;24.45;98637.63;5076275;28;1142;-24
2023/03/11 09:43:04;;;;;;;;;;;;;;;29.49;24.60;98644.50;5083370;28;1185;-22
2023/03/11 09:45:30;;;;;;;;;;;;;;;29.54;24.26;98629.16;5043234;28;1910;-23
2023/03/11 09:48:02;;;;;;;;;;;;;;;29.42;24.56;98631.13;5045109;28;1040;-23
2023/03/11 09:50:31;;;;;;;;;;;;;;;29.33;24.77;98638.84;5058492;28;1031;-23
2023/03/11 09:53:00;;;;;;;;;;;;;;;29.62;24.57;98637.91;5085133;28;1082;-24
2023/03/11 09:55:31;;;;;;;;;;;;;;;29.72;24.08;98632.63;5069117;28;1060;-23
2023/03/11 09:57:57;;;;;;;;;;;;;;;29.28;24.65;98627.97;5089052;28;1182;-23
2023/03/11 10:00:23;;;;;;;;;;;;;;;29.86;24.05;98638.50;5058297;28;1179;-23
2023/03/11 10:02:48;;;;;;;;;;;;;;;29.35;24.31;98642.16;5070210;28;1108;-23
2023/03/11 10:05:20;;;;;;;;;;;;;;;29.16;24.45;98641.63;5063731;28;1902;-23
2023/03/11 10:07:46;;;;;;;;;;;;;;;29.39;24.75;98624.34;5074492;28;1102;-25
2023/03/11 10:10:12;;;;;;;;;;;;;;;29.48;23.94;98629.31;5072518;28;1107;-23
2023/03/11 10:12:41;;;;;;;;;;;;;;;29.04;24.56;98629.00;5066968;28;1126;-22
2023/03/11 10:15:15;;;;;;;;;;;;;;;29.24;24.89;98616.81;5087527;28;1016;-23
2023/03/11 10:17:44;;;;;;;;;;;;;;;29.57;24.01;98625.09;5086850;28;991;-23
2023/03/11 10:20:11;;;;;;;;;;;;;;;29.00;24.62;98627.84;5094995;28;1035;-23
2023/03/11 10:22:53;;;;;;;;;;;;;;;28.90;24.96;98625.78;5065218;28;1153;-23
2023/03/11 10:25:31;;;;;;;;;;;;;;;29.52;24.33;98615.03;5046627;28;1898;-24
2023/03/11 10:28:08;;;;;;;;;;;;;;;29.21;24.59;98591.06;5070328;28;1120;-23
2023/03/11 10:30:35;;;;;;;;;;;;;;;28.66;25.35;98590.75;5063973;28;1175;-23
2023/03/11 10:33:06;;;;;;;;;;;;;;;29.15;24.91;98589.34;5084612;28;1138;-24
2023/03/11 10:35:35;;;;;;;;;;;;;;;29.44;24.46;98572.94;5065773;28;842;-23
2023/03/11 10:38:04;;;;;;;;;;;;;;;29.39;24.63;98572.06;5083452;28;1043;-26
2023/03/11 10:40:36;;;;;;;;;;;;;;;29.46;24.86;98584.34;5072170;28;1043;-23
2023/03/11 10:43:03;;;;;;;;;;;;;;;29.66;24.19;98579.47;5077751;28;1093;-23
2023/03/11 10:45:31;;;;;;;;;;;;;;;29.53;24.49;98583.34;5081737;28;1965;-24
2023/03/11 10:47:57;;;;;;;;;;;;;;;29.59;24.74;98590.50;5067764;28;929;-22
2023/03/11 10:50:22;;;;;;;;;;;;;;;29.78;24.14;98588.25;5099736;28;1065;-23
2023/03/11 10:53:04;;;;;;;;;;;;;;;29.56;24.14;98585.53;5067498;28;1154;-25
2023/03/11 10:55:30;;;;;;;;;;;;;;;29.54;24.55;98574.13;5071113;28;1163;-24
2023/03/11 10:58:11;;;;;;;;;;;;;;;29.87;24.23;98569.66;5079290;28;1225;-24
2023/03/11 11:00:37;;;;;;;;;;;;;;;29.53;23.86;98554.34;5059095;28;1156;-25
2023/03/11 11:03:03;;;;;;;;;;;;;;;29.49;24.33;98550.53;5059307;28;1508;-24
2023/03/11 11:05:29;;;;;;;;;;;;;;;29.95;23.74;98546.69;5059428;28;1965;-24
2023/03/11 11:08:09;;;;;;;;;;;;;;;29.68;23.77;98542.06;5076413;28;1240;-25
2023/03/11 11:10:35;;;;;;;;;;;;;;;29.46;24.17;98529.38;5092594;28;1024;-23
2023/03/11 11:13:06;;;;;;;;;;;;;;;29.77;24.25;98532.44;5099348;28;1026;-25
2023/03/11 11:15:35;;;;;;;;;;;;;;;29.54;24.03;98525.38;5099480;28;1104;-26
2023/03/11 11:18:01;;;;;;;;;;;;;;;29.49;24.29;98530.72;5077330;28;1170;-24
2023/03/11 11:20:27;;;;;;;;;;;;;;;29.62;24.34;98521.41;5072533;28;1115;-24
2023/03/11 11:22:59;;;;;;;;;;;;;;;29.60;24.02;98513.56;5071952;28;1111;-25
2023/03/11 11:25:38;;;;;;;;;;;;;;;29.56;24.25;98507.00;5098910;28;1898;-25
2023/03/11 11:28:13;;;;;;;;;;;;;;;29.49;24.49;98509.06;5081000;28;1183;-24
2023/03/11 11:30:50;;;;;;;;;;;;;;;29.64;23.94;98514.69;5090856;28;1075;-23
2023/03/11 11:33:42;;;;;;;;;;;;;;;29.31;24.49;98519.97;5077699;28;1177;-24
2023/03/11 11:36:11;;;;;;;;;;;;;;;29.48;24.56;98513.66;5093845;28;1620;-29
2023/03/11 11:38:36;;;;;;;;;;;;;;;29.63;23.89;98504.13;5054569;28;1092;-24
2023/03/11 11:41:03;;;;;;;;;;;;;;;29.21;24.48;98511.75;5097981;28;1102;-24
2023/03/11 11:43:38;;;;;;;;;;;;;;;29.03;25.03;98510.16;5066762;28;1234;-24
2023/03/11 11:46:05;;;;;;;;;;;;;;;29.54;24.34;98506.41;5088035;28;1953;-27
2023/03/11 11:48:37;;;;;;;;;;;;;;;29.31;24.21;98514.56;5080356;28;876;-25
2023/03/11 11:51:07;;;;;;;;;;;;;;;29.15;24.38;98515.44;5078436;28;1063;-24
2023/03/11 11:53:47;;;;;;;;;;;;;;;29.55;24.21;98527.00;5080922;28;1218;-25
2023/03/11 11:56:12;;;;;;;;;;;;;;;29.27;24.16;98521.56;5067300;28;1147;-26
2023/03/11 11:58:39;;;;;;;;;;;;;;;28.94;24.81;98520.56;5098387;28;1029;-24
2023/03/11 12:01:08;;;;;;;;;;;;;;;29.30;24.59;98525.63;5076359;28;889;-24
2023/03/11 12:03:52;;;;;;;;;;;;;;;29.64;23.79;98517.41;5098375;28;1053;-24
2023/03/11 12:06:19;;;;;;;;;;;;;;;29.17;24.26;98522.25;5073758;28;2283;-25
2023/03/11 12:08:59;;;;;;;;;;;;;;;29.24;24.58;98523.94;5097949;28;1109;-24
2023/03/11 12:11:29;;;;;;;;;;;;;;;29.57;23.73;98519.44;5088945;28;1114;-24
2023/03/11 12:13:59;;;;;;;;;;;;;;;29.04;24.40;98528.03;5060414;28;1032;-23
2023/03/11 12:16:41;;;;;;;;;;;;;;;28.88;25.00;98525.06;5077951;28;1023;-25
2023/03/11 12:19:12;;;;;;;;;;;;;;;29.54;24.14;98523.50;5077558;28;999;-24
2023/03/11 12:21:53;;;;;;;;;;;;;;;29.16;24.16;98528.72;5060113;28;1043;-24
2023/03/11 12:24:22;;;;;;;;;;;;;;;28.79;24.98;98527.41;5077396;28;878;-24
2023/03/11 12:26:48;;;;;;;;;;;;;;;29.67;23.93;98537.72;5075691;28;1902;-23
2023/03/11 12:29:33;;;;;;;;;;;;;;;29.07;24.44;98527.53;5070662;28;1130;-27
2023/03/11 12:31:59;;;;;;;;;;;;;;;28.72;25.28;98532.16;5077684;28;1054;-24
2023/03/11 12:34:24;;;;;;;;;;;;;;;29.32;24.39;98529.75;5090069;28;1050;-25
2023/03/11 12:36:50;;;;;;;;;;;;;;;29.49;23.88;98525.31;5092125;28;1106;-24
2023/03/11 12:39:22;;;;;;;;;;;;;;;29.00;24.66;98524.16;5072421;28;1115;-23
2023/03/11 12:41:48;;;;;;;;;;;;;;;29.14;24.81;98530.88;5071291;28;1008;-24
2023/03/11 12:44:20;;;;;;;;;;;;;;;29.51;24.02;98515.84;5083766;28;1170;-24
2023/03/11 12:46:55;;;;;;;;;;;;;;;28.96;24.51;98518.44;5085154;28;1909;-24
2023/03/11 12:49:25;;;;;;;;;;;;;;;28.98;24.94;98515.50;5094854;28;908;-23
2023/03/11 12:52:09;;;;;;;;;;;;;;;29.46;24.30;98515.81;5087574;28;1071;-23
2023/03/11 12:54:36;;;;;;;;;;;;;;;29.19;24.46;98517.41;5082046;28;1185;-23
2023/03/11 12:57:19;;;;;;;;;;;;;;;28.85;24.88;98515.56;5097273;28;1042;-23
2023/03/11 13:00:16;;;;;;;;;;;;;;;29.54;24.15;98519.97;5070514;28;1054;-24